createdAt,value
2023-03-10T00:12:47.896Z,7.62
2023-03-10T00:15:21.619Z,7.63
2023-03-10T00:17:56.727Z,7.63
2023-03-10T00:20:30.306Z,7.63
2023-03-10T00:23:03.916Z,7.65
2023-03-10T00:39:40.987Z,7.67
2023-03-10T00:42:20.922Z,7.68
2023-03-10T00:44:54.236Z,7.69
2023-03-10T00:47:28.913Z,7.70
2023-03-10T00:50:02.263Z,7.70
2023-03-10T00:52:38.925Z,7.69
2023-03-10T01:05:50.944Z,7.73
2023-03-10T01:08:24.573Z,7.72
2023-03-10T01:10:57.897Z,7.73
2023-03-10T01:13:31.785Z,7.71
2023-03-10T01:16:05.001Z,7.72
2023-03-10T01:18:38.671Z,7.72
2023-03-10T01:31:58.889Z,7.76
2023-03-10T01:34:38.934Z,7.77
2023-03-10T01:37:12.180Z,7.77
2023-03-10T01:39:45.907Z,7.79
2023-03-10T01:42:19.200Z,7.80
2023-03-10T01:58:42.908Z,7.84
2023-03-10T02:01:18.135Z,7.84
2023-03-10T02:04:00.882Z,7.83
2023-03-10T02:06:35.747Z,7.83
2023-03-10T02:09:11.902Z,7.84
2023-03-10T02:11:47.713Z,7.84
2023-03-10T02:14:24.906Z,7.83
2023-03-10T02:27:41.572Z,7.86
2023-03-10T02:30:23.350Z,7.84
2023-03-10T02:33:09.904Z,7.83
2023-03-10T02:35:44.392Z,7.86
2023-03-10T02:38:21.899Z,7.85
2023-03-10T02:52:13.901Z,7.90
2023-03-10T02:54:47.253Z,7.91
2023-03-10T02:57:20.906Z,7.92
2023-03-10T02:59:54.315Z,7.93
2023-03-10T03:02:27.876Z,7.93
2023-03-10T03:05:01.178Z,7.94
2023-03-10T03:20:52.896Z,7.96
2023-03-10T03:23:28.344Z,7.97
2023-03-10T03:26:01.892Z,7.98
2023-03-10T03:28:35.196Z,7.99
2023-03-10T03:31:10.161Z,8.00
2023-03-10T03:33:44.575Z,8.02
2023-03-10T03:46:34.896Z,8.07
2023-03-10T03:49:14.901Z,8.07
2023-03-10T03:51:49.206Z,8.08
2023-03-10T03:54:22.876Z,8.07
2023-03-10T03:56:58.096Z,8.07
2023-03-10T03:59:31.896Z,8.04
2023-03-10T04:12:43.863Z,8.05
2023-03-10T04:15:17.438Z,8.06
2023-03-10T04:17:50.883Z,8.04
2023-03-10T04:20:24.947Z,8.04
2023-03-10T04:22:58.888Z,8.04
2023-03-10T04:25:35.181Z,8.03
2023-03-10T04:28:10.902Z,8.02
2023-03-10T04:41:20.900Z,8.00
2023-03-10T04:43:56.219Z,8.00
2023-03-10T04:46:32.965Z,8.00
2023-03-10T04:49:07.220Z,8.01
2023-03-10T04:51:40.860Z,8.00
2023-03-10T04:54:14.784Z,8.01
2023-03-10T05:07:05.862Z,7.97
2023-03-10T05:09:51.896Z,7.99
2023-03-10T05:12:27.317Z,7.99
2023-03-10T05:15:01.869Z,7.99
2023-03-10T05:17:35.651Z,7.98
2023-03-10T05:20:10.879Z,7.98
2023-03-10T05:33:31.482Z,8.00
2023-03-10T05:36:08.224Z,8.00
2023-03-10T05:38:44.693Z,7.99
2023-03-10T05:41:18.787Z,8.01
2023-03-10T05:43:55.853Z,8.03
2023-03-10T05:46:29.860Z,8.03
2023-03-10T05:59:24.848Z,8.03
2023-03-10T06:02:04.861Z,8.01
2023-03-10T06:04:40.069Z,8.01
2023-03-10T06:07:18.869Z,8.01
2023-03-10T06:09:52.291Z,8.02
2023-03-10T06:12:25.878Z,8.02
2023-03-10T06:14:59.711Z,8.01
2023-03-10T06:27:49.829Z,8.05
2023-03-10T06:30:29.834Z,8.04
2023-03-10T06:33:03.579Z,8.03
2023-03-10T06:35:37.876Z,8.05
2023-03-10T06:38:11.090Z,8.07
2023-03-10T06:54:25.865Z,8.14
2023-03-10T06:56:59.090Z,8.14
2023-03-10T06:59:25.830Z,8.15
2023-03-10T07:02:05.847Z,8.18
2023-03-10T07:04:39.874Z,8.19
2023-03-10T07:07:13.863Z,8.19
2023-03-10T07:09:49.028Z,8.19
2023-03-10T07:19:40.915Z,8.25
2023-03-10T07:22:14.174Z,8.26
2023-03-10T07:24:47.840Z,8.28
2023-03-10T07:27:23.636Z,8.32
2023-03-10T07:29:56.846Z,8.34
2023-03-10T07:32:30.287Z,8.39
2023-03-10T07:35:03.823Z,8.42
2023-03-10T07:48:15.849Z,8.57
2023-03-10T07:50:56.033Z,8.58
2023-03-10T07:53:36.905Z,8.62
2023-03-10T07:56:15.148Z,8.62
2023-03-10T07:58:54.850Z,8.64
2023-03-10T08:15:31.935Z,8.75
2023-03-10T08:18:11.835Z,8.78
2023-03-10T08:20:45.095Z,8.81
2023-03-10T08:23:18.855Z,8.84
2023-03-10T08:25:52.232Z,8.89
2023-03-10T08:28:25.863Z,8.90
2023-03-10T08:41:39.855Z,9.03
2023-03-10T08:44:14.152Z,9.05
2023-03-10T08:46:49.127Z,9.08
2023-03-10T08:49:22.582Z,9.12
2023-03-10T08:51:55.837Z,9.13
2023-03-10T08:54:31.299Z,9.15
2023-03-10T09:07:29.835Z,9.36
2023-03-10T09:10:11.844Z,9.40
2023-03-10T09:12:45.255Z,9.44
2023-03-10T09:15:33.109Z,9.47
2023-03-10T09:18:06.635Z,9.50
2023-03-10T09:34:21.845Z,9.75
2023-03-10T09:36:55.151Z,9.76
2023-03-10T09:39:28.841Z,9.78
2023-03-10T09:42:37.951Z,9.81
2023-03-10T09:45:34.855Z,9.83
2023-03-10T09:48:39.448Z,9.85
2023-03-10T10:01:38.806Z,10.10
2023-03-10T10:04:25.976Z,10.18
2023-03-10T10:07:02.670Z,10.29
2023-03-10T10:09:49.843Z,10.40
2023-03-10T10:12:25.782Z,10.51
2023-03-10T10:15:05.836Z,10.62
2023-03-10T10:28:29.855Z,11.21
2023-03-10T10:31:17.156Z,11.29
2023-03-10T10:34:03.853Z,11.42
2023-03-10T10:36:48.814Z,11.54
2023-03-10T10:39:33.837Z,11.63
2023-03-10T10:56:20.794Z,11.98
2023-03-10T10:59:17.851Z,11.99
2023-03-10T11:01:54.847Z,11.95
2023-03-10T11:04:47.829Z,11.96
2023-03-10T11:07:26.144Z,11.98
2023-03-10T11:10:06.802Z,12.00
2023-03-10T11:20:32.798Z,12.05
2023-03-10T11:23:25.830Z,12.10
2023-03-10T11:26:07.905Z,12.12
2023-03-10T11:28:58.831Z,12.13
2023-03-10T11:31:48.631Z,12.12
2023-03-10T11:34:32.834Z,12.13
2023-03-10T11:48:02.830Z,12.36
2023-03-10T11:50:49.093Z,12.41
2023-03-10T11:53:41.669Z,12.45
2023-03-10T11:56:18.775Z,12.47
2023-03-10T11:59:04.817Z,12.51
2023-03-10T12:01:44.770Z,12.54
2023-03-10T12:04:32.834Z,12.56
2023-03-10T12:14:20.784Z,12.67
2023-03-10T12:17:02.823Z,12.68
2023-03-10T12:20:18.293Z,12.71
2023-03-10T12:23:01.843Z,12.74
2023-03-10T12:25:46.840Z,12.81
2023-03-10T12:28:32.799Z,12.82
2023-03-10T12:42:02.834Z,12.93
2023-03-10T12:44:50.441Z,13.00
2023-03-10T12:48:00.812Z,13.08
2023-03-10T12:50:50.964Z,13.17
2023-03-10T12:53:38.841Z,13.22
2023-03-10T13:07:36.059Z,13.57
2023-03-10T13:10:21.296Z,13.60
2023-03-10T13:13:07.840Z,13.59
2023-03-10T13:15:41.112Z,13.57
2023-03-10T13:18:24.818Z,13.53
2023-03-10T13:20:58.067Z,13.47
2023-03-10T13:23:35.809Z,13.42
2023-03-10T13:36:45.821Z,13.46
2023-03-10T13:39:25.596Z,13.50
2023-03-10T13:42:09.821Z,13.62
2023-03-10T13:44:43.294Z,13.98
2023-03-10T13:47:23.844Z,14.46
2023-03-10T13:50:01.556Z,14.92
2023-03-10T14:03:00.791Z,14.81
2023-03-10T14:05:49.901Z,14.85
2023-03-10T14:08:26.384Z,14.80
2023-03-10T14:11:45.815Z,14.71
2023-03-10T14:14:31.065Z,14.59
2023-03-10T14:27:50.785Z,14.12
2023-03-10T14:30:33.833Z,14.03
2023-03-10T14:33:13.283Z,13.97
2023-03-10T14:35:53.882Z,13.92
2023-03-10T14:38:27.057Z,13.89
2023-03-10T14:41:01.809Z,13.86
2023-03-10T14:43:37.215Z,13.82
2023-03-10T14:56:28.768Z,13.65
2023-03-10T14:59:10.837Z,13.62
2023-03-10T15:01:44.413Z,13.60
2023-03-10T15:04:21.841Z,13.57
2023-03-10T15:06:55.381Z,13.55
2023-03-10T15:09:29.508Z,13.53
2023-03-10T15:22:41.801Z,13.38
2023-03-10T15:25:18.379Z,13.34
2023-03-10T15:27:59.800Z,13.30
2023-03-10T15:30:35.860Z,13.22
2023-03-10T15:33:09.827Z,13.18
2023-03-10T15:49:46.775Z,12.81
2023-03-10T15:52:26.808Z,12.77
2023-03-10T15:55:00.724Z,12.69
2023-03-10T15:57:33.810Z,12.65
2023-03-10T16:00:09.516Z,12.62
2023-03-10T16:02:42.816Z,12.61
2023-03-10T16:05:18.941Z,12.61
2023-03-10T16:14:47.924Z,12.77
2023-03-10T16:17:21.200Z,12.78
2023-03-10T16:19:54.801Z,12.76
2023-03-10T16:22:30.002Z,12.73
2023-03-10T16:25:03.817Z,12.69
2023-03-10T16:27:37.136Z,12.62
2023-03-10T16:30:11.856Z,12.54
2023-03-10T16:43:37.802Z,12.29
2023-03-10T16:46:14.335Z,12.24
2023-03-10T16:48:54.799Z,12.20
2023-03-10T16:51:31.058Z,12.16
2023-03-10T16:54:07.797Z,12.11
2023-03-10T17:10:44.770Z,11.79
2023-03-10T17:13:25.781Z,11.75
2023-03-10T17:15:59.378Z,11.71
2023-03-10T17:18:32.881Z,11.68
2023-03-10T17:21:14.598Z,11.64
2023-03-10T17:23:55.813Z,11.61
2023-03-10T17:37:07.975Z,11.47
2023-03-10T17:39:41.077Z,11.41
2023-03-10T17:42:14.797Z,11.40
2023-03-10T17:44:48.082Z,11.37
2023-03-10T17:47:21.776Z,11.35
2023-03-10T17:49:55.143Z,11.32
2023-03-10T18:02:45.904Z,11.19
2023-03-10T18:05:25.813Z,11.18
2023-03-10T18:07:59.005Z,11.16
2023-03-10T18:10:32.794Z,11.13
2023-03-10T18:13:09.518Z,11.11
2023-03-10T18:29:31.792Z,10.99
2023-03-10T18:32:05.488Z,10.94
2023-03-10T18:34:38.847Z,10.92
2023-03-10T18:37:12.129Z,10.89
2023-03-10T18:39:45.796Z,10.88
2023-03-10T18:42:19.189Z,10.86
2023-03-10T18:44:54.817Z,10.85
2023-03-10T18:55:18.762Z,10.78
2023-03-10T18:57:58.779Z,10.76
2023-03-10T19:00:34.148Z,10.75
2023-03-10T19:03:07.826Z,10.73
2023-03-10T19:05:41.732Z,10.71
2023-03-10T19:08:15.878Z,10.71
2023-03-10T19:22:06.846Z,10.58
2023-03-10T19:24:40.061Z,10.52
2023-03-10T19:27:14.624Z,10.51
2023-03-10T19:29:50.991Z,10.48
2023-03-10T19:32:24.840Z,10.47
2023-03-10T19:34:58.052Z,10.45
2023-03-10T19:51:13.772Z,10.45
2023-03-10T19:53:47.437Z,10.44
2023-03-10T19:56:28.772Z,10.43
2023-03-10T19:59:02.392Z,10.43
2023-03-10T20:01:35.779Z,10.43
2023-03-10T20:04:10.394Z,10.42
2023-03-10T20:17:00.745Z,10.38
2023-03-10T20:19:40.796Z,10.33
2023-03-10T20:22:14.012Z,10.32
2023-03-10T20:24:47.796Z,10.29
2023-03-10T20:27:21.056Z,10.28
2023-03-10T20:29:55.593Z,10.23
2023-03-10T20:43:07.769Z,10.14
2023-03-10T20:45:41.217Z,10.14
2023-03-10T20:48:14.784Z,10.13
2023-03-10T20:50:53.815Z,10.10
2023-03-10T20:53:34.789Z,10.11
2023-03-10T21:10:14.769Z,10.18
2023-03-10T21:15:27.206Z,10.15
2023-03-10T21:17:54.072Z,10.16
2023-03-10T21:20:33.778Z,10.14
2023-03-10T21:23:07.036Z,10.13
2023-03-10T21:35:48.781Z,10.10
2023-03-10T21:38:28.771Z,10.11
2023-03-10T21:41:05.032Z,10.10
2023-03-10T21:43:38.814Z,10.10
2023-03-10T21:46:12.278Z,10.10
2023-03-10T21:48:45.760Z,10.10
2023-03-10T22:02:36.780Z,9.99
2023-03-10T22:05:14.983Z,9.96
2023-03-10T22:07:54.775Z,9.92
2023-03-10T22:10:28.160Z,9.87
2023-03-10T22:13:01.761Z,9.81
2023-03-10T22:15:34.986Z,9.76
2023-03-10T22:31:46.777Z,9.59
2023-03-10T22:34:13.505Z,9.56
2023-03-10T22:36:55.058Z,9.57
2023-03-10T22:39:27.983Z,9.56
2023-03-10T22:41:54.723Z,9.54
2023-03-10T22:44:39.754Z,9.47
2023-03-10T22:57:51.753Z,9.30
2023-03-10T23:00:25.134Z,9.27
2023-03-10T23:02:58.829Z,9.23
2023-03-10T23:05:32.544Z,9.18
2023-03-10T23:08:05.787Z,9.16
2023-03-10T23:10:40.909Z,9.17
2023-03-10T23:23:30.736Z,9.00
2023-03-10T23:26:10.745Z,9.00
2023-03-10T23:28:44.128Z,9.01
2023-03-10T23:31:17.769Z,9.00
2023-03-10T23:33:50.991Z,8.97
2023-03-10T23:36:24.771Z,8.96
2023-03-10T23:38:59.994Z,8.93
2023-03-10T23:51:47.708Z,8.80
2023-03-10T23:54:36.753Z,8.77
2023-03-10T23:57:10.037Z,8.74
2023-03-10T23:59:43.758Z,8.64
